Time;durP1;ratioP1;P1;durP2;ratioP2;P2;SDS_P1;SDS_P2;PMS_P1;PMS_P2;Temp;Humidity;BMP_temperature;BMP_pressure;BME280_temperature;BME280_humidity;BME280_pressure;Samples;Min_cycle;Max_cycle;Signal;HPM_P1;HPM_P2
2022/08/19 06:57:14;;;;;;;10.90;2.15;;;19.00;91.90;;;;;;5935728;23;20451;31
2022/08/19 06:59:42;;;;;;;8.70;2.35;;;18.50;92.80;;;;;;4892824;29;20078;-77
2022/08/19 07:02:09;;;;;;;16.45;3.63;;;18.10;93.60;;;;;;4899044;29;20440;-77
2022/08/19 07:04:38;;;;;;;9.02;3.63;;;17.80;94.10;;;;;;4897812;29;20024;-75
2022/08/19 07:07:09;;;;;;;11.00;2.63;;;17.60;94.30;;;;;;4896494;29;20032;-78
2022/08/19 07:09:40;;;;;;;12.10;4.38;;;17.30;94.80;;;;;;4897192;29;20047;-79
2022/08/19 07:12:09;;;;;;;11.63;3.25;;;17.10;95.20;;;;;;4896539;29;20108;-79
2022/08/19 07:14:38;;;;;;;14.00;3.60;;;16.80;95.50;;;;;;4896965;29;20453;-78
2022/08/19 07:17:11;;;;;;;9.32;3.08;;;16.60;95.60;;;;;;4898276;29;20021;-86
2022/08/19 07:19:39;;;;;;;5.18;2.17;;;16.50;96.00;;;;;;4894894;29;20024;-74
2022/08/19 07:22:08;;;;;;;8.38;1.65;;;16.30;95.30;;;;;;4897008;29;20500;-73
2022/08/19 07:24:37;;;;;;;10.23;2.55;;;16.10;95.00;;;;;;4897217;29;20045;-73
2022/08/19 07:27:07;;;;;;;7.75;1.90;;;16.00;95.00;;;;;;4897483;29;20721;-74
2022/08/19 07:29:36;;;;;;;4.57;2.10;;;15.90;94.90;;;;;;4896240;29;20116;-74
2022/08/19 07:32:06;;;;;;;11.83;2.50;;;15.80;95.00;;;;;;4897859;29;20055;-75
2022/08/19 07:34:37;;;;;;;8.02;2.20;;;15.70;94.90;;;;;;4897011;29;20048;-75
2022/08/19 07:37:06;;;;;;;8.60;2.60;;;15.70;94.70;;;;;;4896858;29;20562;-80
2022/08/19 07:39:36;;;;;;;8.98;2.67;;;15.50;94.70;;;;;;4893649;29;20060;-76
2022/08/19 07:42:08;;;;;;;7.35;3.33;;;15.50;94.70;;;;;;4896825;29;20465;-74
2022/08/19 07:44:36;;;;;;;3.70;1.70;;;15.40;94.60;;;;;;4893071;29;20075;-70
2022/08/19 07:47:04;;;;;;;3.92;1.40;;;15.40;94.80;;;;;;4896999;29;20028;-68
2022/08/19 07:49:32;;;;;;;2.65;1.20;;;15.30;94.80;;;;;;4896591;29;20023;-68
2022/08/19 07:52:05;;;;;;;4.88;1.02;;;15.30;94.70;;;;;;4896492;29;20028;-71
2022/08/19 07:54:35;;;;;;;3.97;1.30;;;15.20;94.60;;;;;;4896570;29;20503;-69
2022/08/19 07:57:03;;;;;;;9.93;3.20;;;15.10;94.80;;;;;;4894492;29;20021;-69
2022/08/19 07:59:31;;;;;;;2.40;1.45;;;15.00;94.90;;;;;;4895892;29;20044;-73
2022/08/19 08:02:02;;;;;;;4.47;2.38;;;15.00;95.00;;;;;;4896168;29;20386;-71
2022/08/19 08:10:04;;;;;;;7.10;2.42;;;14.80;94.90;;;;;;4896964;29;20484;-67
2022/08/19 08:12:41;;;;;;;4.78;1.88;;;14.70;95.00;;;;;;4896544;29;20036;-69
2022/08/19 08:15:19;;;;;;;3.90;1.58;;;14.70;95.00;;;;;;4896264;29;20041;-69
2022/08/19 08:17:47;;;;;;;3.13;1.00;;;14.60;95.10;;;;;;4896222;29;20055;-67
2022/08/19 08:20:15;;;;;;;1.88;1.02;;;14.50;95.20;;;;;;4896401;29;20095;-70
2022/08/19 08:25:32;;;;;;;3.63;2.50;;;14.50;95.50;;;;;;4896209;29;20067;-68
2022/08/19 08:28:00;;;;;;;7.03;4.10;;;14.40;95.50;;;;;;4896150;29;20052;-69
2022/08/19 08:30:29;;;;;;;7.70;4.60;;;14.40;95.60;;;;;;4896247;29;20029;-71
2022/08/19 08:32:57;;;;;;;9.27;6.03;;;14.30;95.60;;;;;;4896948;29;20076;-67
2022/08/19 08:35:25;;;;;;;8.93;5.20;;;14.30;95.50;;;;;;4897009;29;20382;-68
2022/08/19 08:37:55;;;;;;;5.22;3.78;;;14.30;95.60;;;;;;4896210;29;20438;-67
2022/08/19 08:40:27;;;;;;;15.82;5.30;;;14.20;95.80;;;;;;4895265;29;20048;-68
2022/08/19 08:43:12;;;;;;;;;;;14.10;95.90;;;;;;4896648;29;20362;-67
2022/08/19 08:45:53;;;;;;;4.95;2.42;;;14.10;95.90;;;;;;4896088;29;19911;-67
2022/08/19 08:48:58;;;;;;;5.60;2.38;;;14.10;96.00;;;;;;4895345;29;20020;-68
2022/08/19 08:51:35;;;;;;;3.63;2.05;;;14.00;96.10;;;;;;4896346;29;20066;-67
2022/08/19 08:54:06;;;;;;;7.00;3.92;;;14.00;96.10;;;;;;4895756;29;20473;-69
2022/08/19 08:56:34;;;;;;;8.27;3.83;;;13.90;96.30;;;;;;4895703;29;20392;-67
2022/08/19 08:59:10;;;;;;;5.63;3.30;;;13.90;96.50;;;;;;4895892;29;20405;-67
2022/08/19 09:01:38;;;;;;;5.90;3.55;;;13.80;96.60;;;;;;4895885;29;20025;-67
2022/08/19 09:04:07;;;;;;;2.95;1.83;;;13.80;96.60;;;;;;4895401;29;20029;-67
2022/08/19 09:06:51;;;;;;;10.88;4.22;;;13.80;96.80;;;;;;4895690;29;20024;-67
2022/08/19 09:09:32;;;;;;;4.35;2.13;;;13.70;96.80;;;;;;4899118;29;20103;-69
2022/08/19 09:12:47;;;;;;;4.15;1.88;;;13.60;97.00;;;;;;4900237;29;20031;-67
2022/08/19 09:15:16;;;;;;;5.68;1.30;;;13.60;97.20;;;;;;4849273;29;20045;-67
2022/08/19 09:17:44;;;;;;;3.17;1.67;;;13.60;97.20;;;;;;4899612;29;20047;-71
2022/08/19 09:20:12;;;;;;;3.33;1.30;;;13.50;97.30;;;;;;4899471;29;20028;-68
2022/08/19 09:22:45;;;;;;;6.00;2.10;;;13.50;97.00;;;;;;4899763;29;20539;-70
2022/08/19 09:25:16;;;;;;;7.93;4.43;;;13.60;97.10;;;;;;4899282;29;20033;-68
2022/08/19 09:27:43;;;;;;;3.67;1.55;;;13.50;97.00;;;;;;4899381;29;20028;-68
2022/08/19 09:30:18;;;;;;;12.60;6.22;;;13.50;97.00;;;;;;4899434;29;20024;-67
2022/08/19 09:32:46;;;;;;;11.43;7.13;;;13.40;97.00;;;;;;4899590;29;20032;-69
2022/08/19 09:35:14;;;;;;;15.15;9.60;;;13.40;97.10;;;;;;4899293;29;20404;-67
2022/08/19 09:37:43;;;;;;;5.38;2.92;;;13.40;97.20;;;;;;4899158;29;20099;-67
2022/08/19 09:40:11;;;;;;;4.60;1.70;;;13.30;97.10;;;;;;4898313;29;20025;-71
2022/08/19 09:42:39;;;;;;;6.65;3.83;;;13.30;97.20;;;;;;4898593;29;20040;-70
2022/08/19 09:45:07;;;;;;;4.38;1.90;;;13.30;97.20;;;;;;4897984;29;20031;-68
2022/08/19 09:47:37;;;;;;;4.63;2.05;;;13.30;97.50;;;;;;4898921;29;20034;-69
2022/08/19 09:50:07;;;;;;;9.55;4.75;;;13.20;97.50;;;;;;4897557;29;20076;-68
2022/08/19 09:52:36;;;;;;;5.65;2.67;;;13.10;97.70;;;;;;4898716;29;20027;-70
2022/08/19 09:55:08;;;;;;;5.20;2.70;;;13.10;97.80;;;;;;4898354;29;20045;-67
2022/08/19 09:57:36;;;;;;;5.05;2.67;;;13.20;97.90;;;;;;4899029;29;20033;-69
2022/08/19 10:00:06;;;;;;;8.02;5.38;;;13.10;97.90;;;;;;4898948;29;20036;-70
2022/08/19 10:02:35;;;;;;;5.55;3.40;;;13.10;97.80;;;;;;4898390;29;20123;-66
2022/08/19 10:07:56;;;;;;;3.92;2.55;;;13.10;98.20;;;;;;4890763;29;20127;-65
2022/08/19 10:10:24;;;;;;;3.28;2.00;;;13.00;98.10;;;;;;4898470;29;20045;-63
2022/08/19 10:12:52;;;;;;;3.60;1.85;;;13.00;98.20;;;;;;4898645;29;20035;-68
2022/08/19 10:15:20;;;;;;;3.50;2.08;;;12.90;98.40;;;;;;4898106;29;20084;-70
2022/08/19 10:17:48;;;;;;;4.50;2.63;;;13.00;98.50;;;;;;4897733;29;20028;-72
2022/08/19 10:20:15;;;;;;;4.47;1.80;;;12.90;98.40;;;;;;4897131;29;20481;-74
2022/08/19 10:22:44;;;;;;;6.10;3.33;;;12.90;98.60;;;;;;4898112;29;20032;-73
2022/08/19 10:25:16;;;;;;;4.80;4.25;;;12.90;98.50;;;;;;4898006;29;20489;-72
2022/08/19 10:27:43;;;;;;;4.03;3.05;;;12.90;98.60;;;;;;4898243;29;20556;-72
2022/08/19 10:30:11;;;;;;;3.90;2.60;;;12.90;98.60;;;;;;4898024;29;20032;-71
2022/08/19 10:32:39;;;;;;;6.05;3.03;;;12.80;98.70;;;;;;4898653;29;20103;-70
2022/08/19 10:35:08;;;;;;;3.75;2.40;;;12.70;98.90;;;;;;4897908;29;20040;-71
2022/08/19 10:37:37;;;;;;;5.15;2.45;;;12.70;99.20;;;;;;4897122;29;20025;-73
2022/08/19 10:40:07;;;;;;;11.75;9.25;;;12.70;99.20;;;;;;4898077;29;20052;-71
2022/08/19 10:42:36;;;;;;;8.40;6.18;;;12.60;99.30;;;;;;4898063;29;20492;-71
2022/08/19 10:45:05;;;;;;;6.75;4.57;;;12.70;99.60;;;;;;4898040;29;20096;-72
2022/08/19 10:47:33;;;;;;;22.17;18.10;;;12.60;99.60;;;;;;4896293;29;20037;-73
2022/08/19 10:52:48;;;;;;;28.70;25.60;;;12.50;99.70;;;;;;4896818;29;20040;-74
2022/08/19 10:58:02;;;;;;;7.93;7.07;;;12.50;99.70;;;;;;4896489;29;20071;-72
2022/08/19 11:00:30;;;;;;;4.55;3.00;;;12.50;99.70;;;;;;4891280;29;20040;-73
2022/08/19 11:02:58;;;;;;;7.63;5.97;;;12.50;99.80;;;;;;4896961;29;20021;-70
2022/08/19 11:05:25;;;;;;;8.70;5.05;;;12.40;99.80;;;;;;4896627;29;20032;-71
2022/08/19 11:07:52;;;;;;;8.52;5.07;;;12.40;99.90;;;;;;4896672;29;20029;-72
2022/08/19 11:10:20;;;;;;;5.57;2.60;;;12.40;99.90;;;;;;4897289;29;20020;-75
2022/08/19 11:12:47;;;;;;;9.07;8.18;;;12.40;99.90;;;;;;4897846;29;20029;-69
2022/08/19 11:15:15;;;;;;;5.53;3.53;;;12.30;99.90;;;;;;4897907;29;20029;-71
2022/08/19 11:17:43;;;;;;;5.35;3.22;;;12.30;99.90;;;;;;4897452;29;20156;-71
2022/08/19 11:20:12;;;;;;;7.72;2.67;;;12.20;99.90;;;;;;4897211;29;20024;-72
2022/08/19 11:22:40;;;;;;;6.78;4.30;;;12.20;99.90;;;;;;4897775;29;20028;-73
2022/08/19 11:25:09;;;;;;;4.53;3.33;;;12.10;99.90;;;;;;4897622;29;20020;-71
2022/08/19 11:27:42;;;;;;;4.45;2.85;;;12.20;99.90;;;;;;4897301;29;20104;-71
2022/08/19 11:30:11;;;;;;;3.58;2.50;;;12.20;99.90;;;;;;4897117;29;20104;-71
2022/08/19 11:32:39;;;;;;;10.52;5.80;;;12.10;99.90;;;;;;4896826;29;20032;-71
2022/08/19 11:35:07;;;;;;;6.05;3.30;;;12.10;99.90;;;;;;4896238;29;20717;-69
2022/08/19 11:37:37;;;;;;;8.18;4.68;;;12.00;99.90;;;;;;4897685;29;20035;-71
2022/08/19 11:40:05;;;;;;;4.30;2.08;;;12.10;99.90;;;;;;4894509;29;20519;-72
2022/08/19 11:45:18;;;;;;;9.52;5.07;;;12.00;99.90;;;;;;4896607;29;20428;-73
2022/08/19 11:47:47;;;;;;;8.25;6.38;;;12.00;99.90;;;;;;4896687;29;20028;-70
2022/08/19 11:50:15;;;;;;;10.80;5.10;;;12.00;99.90;;;;;;4896619;29;20028;-72
2022/08/19 11:52:43;;;;;;;7.20;5.57;;;12.00;99.90;;;;;;4896966;29;20088;-72
2022/08/19 11:55:11;;;;;;;7.80;5.28;;;12.00;99.90;;;;;;4896968;29;20142;-70
2022/08/19 11:57:40;;;;;;;3.70;3.10;;;12.00;99.90;;;;;;4897007;29;20055;-72
2022/08/19 12:00:10;;;;;;;10.48;5.45;;;11.90;99.90;;;;;;4897020;29;20021;-73
2022/08/19 12:02:37;;;;;;;12.95;8.07;;;11.90;99.90;;;;;;4896962;29;20442;-73
2022/08/19 12:05:05;;;;;;;10.40;6.82;;;11.80;99.90;;;;;;4896392;29;20099;-73
2022/08/19 12:07:33;;;;;;;10.20;6.32;;;11.80;99.90;;;;;;4895814;29;20108;-73
2022/08/19 12:10:01;;;;;;;12.25;5.85;;;11.80;99.90;;;;;;4877510;29;20052;-74
2022/08/19 12:12:29;;;;;;;6.13;3.17;;;11.70;99.90;;;;;;4877532;29;20120;-72
2022/08/19 12:14:58;;;;;;;5.53;3.42;;;11.70;99.90;;;;;;4877447;29;20093;-71
2022/08/19 12:17:26;;;;;;;6.95;3.30;;;11.70;99.90;;;;;;4896054;29;20029;-72
2022/08/19 12:19:54;;;;;;;6.00;2.90;;;11.60;99.90;;;;;;4896006;29;20550;-73
2022/08/19 12:22:22;;;;;;;5.57;3.78;;;11.60;99.90;;;;;;4896719;29;20025;-72
2022/08/19 12:24:52;;;;;;;5.90;3.90;;;11.60;99.90;;;;;;4896312;29;20035;-72
2022/08/19 12:27:19;;;;;;;6.00;3.33;;;11.50;99.90;;;;;;4896492;29;20028;-73
2022/08/19 12:29:47;;;;;;;9.63;3.40;;;11.50;99.90;;;;;;4896246;29;20100;-72
2022/08/19 12:32:15;;;;;;;5.90;3.28;;;11.50;99.90;;;;;;4895836;29;20017;-74
2022/08/19 12:34:42;;;;;;;5.65;3.72;;;11.40;99.90;;;;;;4895547;29;20396;-71
2022/08/19 12:37:10;;;;;;;5.03;3.30;;;11.40;99.90;;;;;;4895823;29;20381;-73
2022/08/19 12:39:41;;;;;;;4.20;2.50;;;11.40;99.90;;;;;;4896181;29;20032;-71
2022/08/19 12:42:10;;;;;;;6.38;3.63;;;11.40;99.90;;;;;;4895883;29;20473;-73
2022/08/19 12:44:39;;;;;;;6.95;3.63;;;11.40;99.90;;;;;;4896145;29;20021;-71
2022/08/19 12:47:08;;;;;;;8.98;3.50;;;11.30;99.90;;;;;;4895739;29;20028;-73
2022/08/19 12:49:36;;;;;;;6.78;3.85;;;11.30;99.90;;;;;;4894429;29;20076;-71
2022/08/19 12:52:05;;;;;;;6.22;3.65;;;11.20;99.90;;;;;;4896344;29;20028;-71
2022/08/19 12:54:33;;;;;;;5.82;3.22;;;11.10;99.90;;;;;;4896365;29;20047;-70
2022/08/19 12:57:00;;;;;;;7.55;3.53;;;11.10;99.90;;;;;;4896143;29;20024;-73
2022/08/19 12:59:28;;;;;;;7.05;3.72;;;11.10;99.90;;;;;;4895451;29;20072;-71
2022/08/19 13:01:55;;;;;;;4.82;2.90;;;11.00;99.90;;;;;;4896299;29;20502;-72
2022/08/19 13:04:22;;;;;;;5.10;3.08;;;10.90;99.90;;;;;;4896244;29;20079;-74
2022/08/19 13:06:50;;;;;;;6.32;3.50;;;11.00;99.90;;;;;;4895943;29;20116;-73
2022/08/19 13:09:18;;;;;;;5.85;2.83;;;11.00;99.90;;;;;;4895477;29;20462;-75
2022/08/19 13:11:45;;;;;;;6.15;3.47;;;10.90;99.90;;;;;;4895914;29;20035;-71
2022/08/19 13:14:12;;;;;;;7.78;3.67;;;10.90;99.90;;;;;;4895305;29;20032;-72
2022/08/19 13:16:41;;;;;;;6.35;3.40;;;10.90;99.90;;;;;;4895632;29;20152;-71
2022/08/19 13:19:08;;;;;;;4.70;3.00;;;10.90;99.90;;;;;;4890962;29;20481;-72
2022/08/19 13:21:36;;;;;;;5.00;2.50;;;10.90;99.90;;;;;;4887713;29;20112;-72
2022/08/19 13:24:03;;;;;;;7.82;3.30;;;10.90;99.90;;;;;;4895054;29;20064;-72
2022/08/19 13:26:30;;;;;;;7.03;3.20;;;10.80;99.90;;;;;;4895423;29;20485;-71
2022/08/19 13:34:35;;;;;;;5.03;3.00;;;10.90;99.90;;;;;;4894890;29;20075;-70
2022/08/19 13:37:04;;;;;;;4.70;2.72;;;10.80;99.90;;;;;;4895862;29;20025;-71
2022/08/19 13:39:32;;;;;;;5.40;2.47;;;10.90;99.90;;;;;;4895756;29;20111;-71
2022/08/19 13:42:01;;;;;;;4.63;1.85;;;10.90;99.90;;;;;;4895899;29;20055;-70
2022/08/19 13:44:29;;;;;;;4.05;1.73;;;10.90;99.90;;;;;;4895996;29;20025;-70
2022/08/19 13:47:05;;;;;;;4.93;1.90;;;10.90;99.90;;;;;;4895984;29;20025;-71
2022/08/19 13:49:33;;;;;;;3.20;1.75;;;11.00;99.80;;;;;;4896003;29;20045;-70
2022/08/19 13:52:00;;;;;;;6.10;1.90;;;11.00;99.70;;;;;;4896054;29;20020;-71
2022/08/19 13:54:27;;;;;;;2.38;1.52;;;11.00;99.00;;;;;;4895871;29;20067;-70
2022/08/19 13:56:55;;;;;;;4.10;1.98;;;11.10;98.40;;;;;;4899239;29;20028;-72
2022/08/19 13:59:22;;;;;;;5.70;1.80;;;11.10;97.80;;;;;;4899344;29;20056;-71
2022/08/19 14:01:50;;;;;;;4.78;1.55;;;11.00;97.50;;;;;;4899460;29;20029;-71
2022/08/19 14:04:17;;;;;;;3.85;1.80;;;11.10;97.70;;;;;;4899181;29;20025;-70
2022/08/19 14:06:44;;;;;;;4.43;2.05;;;11.10;97.10;;;;;;4899674;29;20111;-71
2022/08/19 14:09:11;;;;;;;5.15;1.50;;;11.10;96.90;;;;;;4899574;29;20029;-71
2022/08/19 14:11:39;;;;;;;3.80;1.80;;;11.20;96.90;;;;;;4899756;29;20359;-72
2022/08/19 14:14:06;;;;;;;4.22;1.50;;;11.20;97.00;;;;;;4899540;29;20064;-71
2022/08/19 14:16:33;;;;;;;6.43;1.70;;;11.30;96.60;;;;;;4899425;29;20686;-70
2022/08/19 14:19:01;;;;;;;4.47;1.60;;;11.20;96.00;;;;;;4899255;29;20032;-71
2022/08/19 14:21:28;;;;;;;5.18;1.67;;;11.20;96.30;;;;;;4898854;29;20112;-70
2022/08/19 14:23:55;;;;;;;5.68;1.58;;;11.20;96.30;;;;;;4898803;29;20025;-70
2022/08/19 14:26:23;;;;;;;5.95;1.92;;;11.20;96.00;;;;;;4899119;29;20156;-71
2022/08/19 14:28:51;;;;;;;5.47;1.73;;;11.20;95.90;;;;;;4899356;29;20362;-70
2022/08/19 14:31:21;;;;;;;5.30;2.47;;;11.30;95.60;;;;;;4899129;29;20048;-72
2022/08/19 14:33:50;;;;;;;3.53;1.55;;;11.20;95.40;;;;;;4899257;29;20048;-70
2022/08/19 14:36:19;;;;;;;4.45;1.50;;;11.20;95.40;;;;;;4899056;29;20028;-71
2022/08/19 14:38:48;;;;;;;5.40;1.42;;;11.20;95.30;;;;;;4897712;29;20075;-70
2022/08/19 14:41:22;;;;;;;4.20;1.85;;;11.20;95.60;;;;;;4898922;29;20021;-70
2022/08/19 14:43:51;;;;;;;5.25;1.98;;;11.20;95.00;;;;;;4898555;29;20382;-71
2022/08/19 14:46:22;;;;;;;6.68;2.15;;;11.20;94.80;;;;;;4898799;29;20487;-74
2022/08/19 14:48:50;;;;;;;6.30;1.95;;;11.20;94.70;;;;;;4898833;29;20032;-72
2022/08/19 14:51:18;;;;;;;6.55;2.15;;;11.30;94.70;;;;;;4898947;29;20470;-70
2022/08/19 14:53:48;;;;;;;6.90;1.85;;;11.30;94.70;;;;;;4898344;29;20052;-70
2022/08/19 14:56:19;;;;;;;4.63;1.75;;;11.30;94.60;;;;;;4898563;29;20542;-70
2022/08/19 14:58:47;;;;;;;7.20;2.45;;;11.20;94.40;;;;;;4898436;29;20508;-71
2022/08/19 15:01:14;;;;;;;8.85;2.05;;;11.20;94.60;;;;;;4898808;29;20067;-70
2022/08/19 15:03:42;;;;;;;3.70;1.20;;;11.20;94.50;;;;;;4898369;29;20027;-70
2022/08/19 15:06:10;;;;;;;6.07;1.95;;;11.20;94.50;;;;;;4898195;29;20450;-70
2022/08/19 15:08:39;;;;;;;5.70;1.45;;;11.20;94.30;;;;;;4898276;29;20473;-71
2022/08/19 15:11:15;;;;;;;2.65;1.60;;;11.20;94.50;;;;;;4898012;29;20041;-70
2022/08/19 15:13:44;;;;;;;5.05;1.45;;;11.20;94.40;;;;;;4897855;29;20077;-70
2022/08/19 15:16:14;;;;;;;3.55;1.50;;;11.20;94.50;;;;;;4898514;29;20021;-69
2022/08/19 15:18:44;;;;;;;5.40;2.13;;;11.10;94.50;;;;;;4898774;29;20024;-70
2022/08/19 15:21:13;;;;;;;7.07;1.48;;;11.20;94.40;;;;;;4898478;29;20028;-70
2022/08/19 15:23:41;;;;;;;5.93;1.23;;;11.20;94.50;;;;;;4898039;29;20036;-70
2022/08/19 15:26:10;;;;;;;6.10;1.58;;;11.10;94.50;;;;;;4898189;29;20038;-70
2022/08/19 15:28:37;;;;;;;4.95;1.58;;;11.10;94.70;;;;;;4898150;29;20053;-71
2022/08/19 15:31:05;;;;;;;5.07;2.25;;;11.10;94.50;;;;;;4898216;29;20032;-70
2022/08/19 15:33:36;;;;;;;2.92;1.27;;;11.00;94.80;;;;;;4898083;29;20029;-71
2022/08/19 15:36:07;;;;;;;6.22;1.65;;;11.00;94.70;;;;;;4898061;29;20077;-70
2022/08/19 15:38:35;;;;;;;5.55;1.63;;;11.00;94.60;;;;;;4898170;29;20039;-70
2022/08/19 15:41:22;;;;;;;5.80;1.40;;;11.00;94.80;;;;;;4898303;29;20024;-71
2022/08/19 15:43:57;;;;;;;5.68;1.45;;;11.00;95.00;;;;;;4897768;29;20021;-68
2022/08/19 15:46:27;;;;;;;5.95;2.00;;;10.90;94.80;;;;;;4897908;29;20040;-69
2022/08/19 15:48:54;;;;;;;5.07;1.60;;;10.90;95.00;;;;;;4897973;29;20029;-69
2022/08/19 15:51:22;;;;;;;5.15;1.70;;;10.80;94.80;;;;;;4897922;29;20112;-69
2022/08/19 15:53:50;;;;;;;4.63;1.67;;;10.90;94.90;;;;;;4897565;29;20589;-69
2022/08/19 15:56:17;;;;;;;6.38;1.85;;;10.80;94.70;;;;;;4897626;29;20099;-69
2022/08/19 16:07:02;;;;;;;4.45;1.60;;;10.80;94.70;;;;;;4897546;29;20027;-69
2022/08/19 16:09:33;;;;;;;7.50;1.42;;;10.80;94.70;;;;;;4895858;29;20396;-68
2022/08/19 16:12:03;;;;;;;4.25;1.83;;;10.80;94.70;;;;;;4897234;29;20028;-68
2022/08/19 16:14:34;;;;;;;5.80;1.60;;;10.80;94.40;;;;;;4897284;29;20037;-69
2022/08/19 16:17:02;;;;;;;7.88;2.22;;;10.70;94.80;;;;;;4896785;29;20159;-68
2022/08/19 16:19:31;;;;;;;5.88;1.60;;;10.70;94.50;;;;;;4897139;29;20116;-69
2022/08/19 16:21:58;;;;;;;5.75;1.50;;;10.70;94.60;;;;;;4897225;29;20039;-68
2022/08/19 16:24:28;;;;;;;10.10;2.53;;;10.70;94.40;;;;;;4897461;29;20036;-69
2022/08/19 16:26:56;;;;;;;4.47;2.17;;;10.60;94.20;;;;;;4897446;29;20032;-70
2022/08/19 16:29:24;;;;;;;5.82;1.55;;;10.70;94.40;;;;;;4897072;29;20096;-69
2022/08/19 16:31:53;;;;;;;3.72;1.92;;;10.70;94.40;;;;;;4897109;29;20063;-71
2022/08/19 16:34:21;;;;;;;7.72;3.03;;;10.70;94.60;;;;;;4895334;29;20060;-69
2022/08/19 16:36:48;;;;;;;4.93;2.00;;;10.70;94.70;;;;;;4896591;29;20095;-70
2022/08/19 16:39:17;;;;;;;6.07;2.35;;;10.70;94.70;;;;;;4896278;29;20036;-68
2022/08/19 16:41:45;;;;;;;5.40;2.10;;;10.60;94.60;;;;;;4896256;29;20099;-73
2022/08/19 16:44:14;;;;;;;5.85;1.20;;;10.60;94.80;;;;;;4894997;29;20033;-69
2022/08/19 16:46:41;;;;;;;6.95;1.65;;;10.60;94.60;;;;;;4896149;29;20473;-69
2022/08/19 16:49:10;;;;;;;4.78;1.90;;;10.60;94.70;;;;;;4896258;29;20021;-69
2022/08/19 16:51:38;;;;;;;5.45;1.50;;;10.60;94.70;;;;;;4896520;29;20036;-69
2022/08/19 16:54:06;;;;;;;7.35;1.63;;;10.50;94.70;;;;;;4896930;29;20112;-69
2022/08/19 16:56:35;;;;;;;3.85;1.38;;;10.60;94.60;;;;;;4897144;29;20036;-70
2022/08/19 16:59:02;;;;;;;3.72;1.50;;;10.50;94.40;;;;;;4896537;29;20078;-69
2022/08/19 17:01:30;;;;;;;12.13;3.13;;;10.50;94.80;;;;;;4896559;29;20024;-69
2022/08/19 17:03:57;;;;;;;7.35;1.70;;;10.50;94.90;;;;;;4896692;29;20032;-69
2022/08/19 17:06:28;;;;;;;7.13;1.75;;;10.50;95.20;;;;;;4896580;29;20017;-69
2022/08/19 17:08:59;;;;;;;5.05;1.42;;;10.40;95.60;;;;;;4896343;29;20107;-70
2022/08/19 17:11:28;;;;;;;4.03;1.98;;;10.30;95.00;;;;;;4896400;29;20482;-68
2022/08/19 17:13:57;;;;;;;5.45;1.70;;;10.30;94.60;;;;;;4896554;29;20044;-69
2022/08/19 17:16:28;;;;;;;3.33;1.50;;;10.40;94.80;;;;;;4896121;29;20025;-68
2022/08/19 17:18:57;;;;;;;5.50;1.23;;;10.40;95.30;;;;;;4896778;29;20466;-69
2022/08/19 17:21:27;;;;;;;5.00;1.40;;;10.30;95.00;;;;;;4896595;29;20021;-68
2022/08/19 17:23:59;;;;;;;4.53;1.50;;;10.30;94.90;;;;;;4896504;29;20505;-70
2022/08/19 17:26:28;;;;;;;2.72;1.20;;;10.20;95.20;;;;;;4896593;29;20033;-71
2022/08/19 17:28:57;;;;;;;4.43;1.48;;;10.30;95.50;;;;;;4897618;29;20481;-69
2022/08/19 17:31:27;;;;;;;10.45;2.92;;;10.20;95.30;;;;;;4900252;29;20024;-69
2022/08/19 17:33:57;;;;;;;4.20;2.03;;;10.20;95.60;;;;;;4900518;29;20493;-68
2022/08/19 17:36:26;;;;;;;4.03;1.27;;;10.20;95.50;;;;;;4900459;29;20025;-69
2022/08/19 17:38:55;;;;;;;6.47;1.33;;;10.20;95.50;;;;;;4900391;29;20032;-68
2022/08/19 17:41:24;;;;;;;3.67;1.48;;;10.10;95.60;;;;;;4900138;29;20035;-71
2022/08/19 17:43:52;;;;;;;4.35;1.85;;;10.10;95.60;;;;;;4899600;29;20367;-69
2022/08/19 17:46:20;;;;;;;4.03;1.48;;;10.00;95.80;;;;;;4899615;29;20024;-70
2022/08/19 17:48:50;;;;;;;4.40;1.40;;;10.10;95.70;;;;;;4899057;29;20124;-69
2022/08/19 17:51:22;;;;;;;7.65;1.73;;;10.00;95.60;;;;;;4899126;29;20025;-68
2022/08/19 17:53:51;;;;;;;5.50;1.45;;;10.10;95.80;;;;;;4900104;29;20039;-69
2022/08/19 17:56:19;;;;;;;5.55;2.15;;;10.10;95.70;;;;;;4899916;29;20025;-69
2022/08/19 17:58:46;;;;;;;3.60;1.20;;;10.00;95.60;;;;;;4899636;29;20105;-69
2022/08/19 18:01:15;;;;;;;5.15;1.63;;;10.00;95.80;;;;;;4900052;29;20111;-68
2022/08/19 18:03:42;;;;;;;4.43;2.25;;;9.90;96.00;;;;;;4899294;29;20036;-68
2022/08/19 18:06:15;;;;;;;4.88;2.03;;;10.00;95.70;;;;;;4899234;29;20059;-69
2022/08/19 18:08:45;;;;;;;8.43;2.28;;;9.90;95.90;;;;;;4899532;29;20025;-68
2022/08/19 18:11:12;;;;;;;4.88;1.60;;;9.80;96.20;;;;;;4899337;29;20059;-69
2022/08/19 18:13:40;;;;;;;3.33;1.70;;;9.80;96.50;;;;;;4899459;29;20043;-69
2022/08/19 18:16:10;;;;;;;7.05;2.20;;;9.80;96.60;;;;;;4899633;29;20033;-68
2022/08/19 18:18:39;;;;;;;6.95;2.40;;;9.70;96.80;;;;;;4899339;29;20107;-68
2022/08/19 18:21:07;;;;;;;4.50;1.70;;;9.60;97.20;;;;;;4898889;29;20072;-68
2022/08/19 18:23:35;;;;;;;5.15;1.75;;;9.60;97.50;;;;;;4899183;29;20545;-71
2022/08/19 18:26:03;;;;;;;5.28;1.65;;;9.60;97.60;;;;;;4899323;29;20116;-68
2022/08/19 18:28:30;;;;;;;6.30;1.95;;;9.50;97.70;;;;;;4899285;29;20067;-68
2022/08/19 18:30:58;;;;;;;3.28;1.65;;;9.40;97.70;;;;;;4899063;29;20035;-69
2022/08/19 18:33:26;;;;;;;3.80;1.90;;;9.40;98.10;;;;;;4913563;29;20092;-69
2022/08/19 18:35:53;;;;;;;3.90;1.77;;;9.30;98.20;;;;;;4913445;29;20579;-69
2022/08/19 18:49:27;;;;;;;5.25;2.60;;;9.20;98.60;;;;;;4899114;29;20077;-69
2022/08/19 18:51:55;;;;;;;7.35;2.28;;;9.10;98.80;;;;;;4899016;29;20470;-69
2022/08/19 18:54:25;;;;;;;3.58;1.50;;;9.20;98.80;;;;;;4898860;29;20512;-69
2022/08/19 18:56:54;;;;;;;8.50;2.65;;;9.10;98.80;;;;;;4899269;29;20064;-69
2022/08/19 18:59:29;;;;;;;4.78;1.58;;;9.10;98.30;;;;;;4898728;29;20051;-70
2022/08/19 19:01:58;;;;;;;4.93;2.17;;;9.10;98.10;;;;;;4898714;29;20523;-69
2022/08/19 19:04:29;;;;;;;7.53;2.33;;;9.10;97.50;;;;;;4898596;29;20025;-69
2022/08/19 19:06:57;;;;;;;4.15;1.95;;;9.10;97.40;;;;;;4898801;29;20430;-69
2022/08/19 19:09:25;;;;;;;5.65;2.22;;;9.20;97.40;;;;;;4898265;29;20029;-70
2022/08/19 19:11:59;;;;;;;3.83;1.88;;;9.20;97.40;;;;;;4898317;29;20032;-70
2022/08/19 19:14:33;;;;;;;5.55;2.33;;;9.20;97.50;;;;;;4897731;29;20314;-70
2022/08/19 19:17:03;;;;;;;5.60;2.55;;;9.30;97.60;;;;;;4898340;29;20020;-70
2022/08/19 19:19:34;;;;;;;6.10;1.88;;;9.30;97.60;;;;;;4898410;29;20021;-70
2022/08/19 19:22:03;;;;;;;6.38;2.03;;;9.20;97.60;;;;;;4898676;29;20095;-71
2022/08/19 19:24:32;;;;;;;4.88;2.38;;;9.30;97.80;;;;;;4898097;29;20032;-70
2022/08/19 19:27:07;;;;;;;7.47;2.40;;;9.30;97.80;;;;;;4898360;29;20032;-69
2022/08/19 19:29:35;;;;;;;4.93;1.88;;;9.20;97.80;;;;;;4897790;29;20024;-69
2022/08/19 19:32:06;;;;;;;4.82;2.10;;;9.20;97.80;;;;;;4897824;29;20043;-68
2022/08/19 19:34:34;;;;;;;6.90;2.03;;;9.10;98.10;;;;;;4897874;29;20063;-69
2022/08/19 19:37:01;;;;;;;5.32;2.15;;;9.20;98.40;;;;;;4898055;29;20029;-68
2022/08/19 19:39:28;;;;;;;5.80;2.10;;;9.10;98.50;;;;;;4896882;29;20031;-69
2022/08/19 19:41:55;;;;;;;6.22;2.30;;;9.00;98.40;;;;;;4897819;29;20095;-70
2022/08/19 19:44:23;;;;;;;3.50;2.08;;;8.90;98.60;;;;;;4897494;29;20432;-71
2022/08/19 19:46:50;;;;;;;5.97;2.42;;;9.00;99.10;;;;;;4897752;29;20052;-70
2022/08/19 19:49:17;;;;;;;6.05;2.47;;;8.90;99.10;;;;;;4897322;29;20092;-70
2022/08/19 19:51:45;;;;;;;8.77;2.90;;;8.80;99.30;;;;;;4896828;29;20088;-71
2022/08/19 19:54:13;;;;;;;5.60;2.83;;;8.80;99.60;;;;;;4897056;29;20032;-73
2022/08/19 19:56:47;;;;;;;5.60;2.60;;;8.80;99.60;;;;;;4897258;29;20029;-70
2022/08/19 19:59:14;;;;;;;8.00;3.05;;;8.70;99.80;;;;;;4897412;29;20099;-70
2022/08/19 20:01:44;;;;;;;9.70;3.38;;;8.60;99.80;;;;;;4897505;29;20547;-70
2022/08/19 20:04:16;;;;;;;8.18;3.10;;;8.70;99.90;;;;;;4897054;29;20079;-70
2022/08/19 20:06:47;;;;;;;6.75;2.42;;;8.60;99.90;;;;;;4897438;29;20020;-70
2022/08/19 20:09:16;;;;;;;6.18;2.35;;;8.60;99.90;;;;;;4897255;29;20035;-70
2022/08/19 20:11:50;;;;;;;8.32;3.20;;;8.60;99.90;;;;;;4895706;29;20989;-70
2022/08/19 20:14:23;;;;;;;7.28;2.53;;;8.50;99.90;;;;;;4896869;29;20033;-70
2022/08/19 20:16:52;;;;;;;11.00;2.35;;;8.50;99.90;;;;;;4896775;29;20021;-69
2022/08/19 20:19:21;;;;;;;5.72;2.60;;;8.50;99.90;;;;;;4897478;29;20031;-71
2022/08/19 20:21:49;;;;;;;7.75;2.33;;;8.50;99.90;;;;;;4897370;29;20020;-70
2022/08/19 20:24:21;;;;;;;8.52;3.05;;;8.50;99.90;;;;;;4897520;29;20469;-69
2022/08/19 20:26:49;;;;;;;6.22;2.30;;;8.50;99.90;;;;;;4897405;29;20069;-69
2022/08/19 20:29:18;;;;;;;7.20;2.95;;;8.50;99.90;;;;;;4897242;29;20517;-70
2022/08/19 20:31:47;;;;;;;6.93;2.78;;;8.60;99.90;;;;;;4896212;29;20028;-69
2022/08/19 20:34:15;;;;;;;7.70;2.65;;;8.50;99.90;;;;;;4896221;29;20507;-69
2022/08/19 20:36:43;;;;;;;8.98;2.60;;;8.50;99.90;;;;;;4896321;29;20440;-70
2022/08/19 20:39:11;;;;;;;9.55;2.78;;;8.50;99.90;;;;;;4896415;29;20470;-72